Time;durP1;ratioP1;P1;durP2;ratioP2;P2;SDS_P1;SDS_P2;PMS_P1;PMS_P2;Temp;Humidity;BMP_temperature;BMP_pressure;BME280_temperature;BME280_humidity;BME280_pressure;Samples;Min_cycle;Max_cycle;Signal;HPM_P1;HPM_P2
2022/02/07 00:00:21;;;;;;;3.08;2.33;;;;;;;4.39;71.72;98275.28;2349044;74;29625;-66
2022/02/07 00:03:30;;;;;;;6.05;2.35;;;;;;;4.37;71.92;98275.84;2349278;75;27635;-67
2022/02/07 00:06:22;;;;;;;4.35;3.00;;;;;;;4.36;72.02;98266.66;2352909;75;29551;-68
2022/02/07 00:09:24;;;;;;;5.87;3.37;;;;;;;4.33;72.12;98257.55;2353939;75;31832;-67
2022/02/07 00:12:26;;;;;;;6.45;3.40;;;;;;;4.30;72.13;98259.92;2349188;75;32918;-66
2022/02/07 00:15:27;;;;;;;5.65;2.90;;;;;;;4.26;72.13;98259.22;2352557;75;28139;-68
2022/02/07 00:18:29;;;;;;;4.65;3.12;;;;;;;4.20;72.08;98261.36;2349952;75;27779;-69
2022/02/07 00:21:33;;;;;;;3.90;2.08;;;;;;;4.14;72.15;98258.59;2355389;75;29449;-67
2022/02/07 00:24:35;;;;;;;5.47;2.70;;;;;;;4.05;72.23;98252.02;2356287;75;31014;-67
2022/02/07 00:27:36;;;;;;;5.80;2.80;;;;;;;3.95;72.17;98249.02;2350274;75;33759;-66
2022/02/07 00:30:39;;;;;;;4.17;2.37;;;;;;;3.90;72.26;98248.90;2349103;75;28695;-68
2022/02/07 00:33:40;;;;;;;5.03;2.65;;;;;;;3.82;72.24;98239.19;2355939;75;27620;-66
2022/02/07 00:36:42;;;;;;;4.12;2.60;;;;;;;3.75;72.24;98230.27;2356136;75;29443;-66
2022/02/07 00:40:05;;;;;;;3.95;2.40;;;;;;;3.69;72.27;98229.76;2349985;75;31018;-66
2022/02/07 00:43:13;;;;;;;3.12;1.87;;;;;;;3.63;72.38;98231.80;2351440;75;33751;-65
2022/02/07 00:46:12;;;;;;;3.92;2.45;;;;;;;3.57;72.52;98229.47;2348510;74;28717;-65
2022/02/07 00:49:09;;;;;;;6.00;2.95;;;;;;;3.55;72.70;98236.67;2352507;75;27797;-64
2022/02/07 00:52:11;;;;;;;6.95;3.12;;;;;;;3.54;72.93;98232.31;2349134;75;28918;-65
2022/02/07 00:55:12;;;;;;;4.72;2.95;;;;;;;3.55;73.10;98230.05;2352086;75;31167;-65
2022/02/07 00:58:14;;;;;;;4.08;2.37;;;;;;;3.59;73.30;98226.76;2356052;75;32928;-66
2022/02/07 01:01:16;;;;;;;4.00;2.58;;;;;;;3.63;73.51;98226.50;2355856;75;28725;-68
2022/02/07 01:04:18;;;;;;;7.92;2.50;;;;;;;3.69;73.71;98223.14;2350529;75;27630;-69
2022/02/07 01:07:20;;;;;;;2.87;1.90;;;;;;;3.75;73.79;98222.33;2355891;75;29106;-69
2022/02/07 01:10:38;;;;;;;3.75;2.40;;;;;;;3.83;73.92;98215.73;2251570;78;31047;-69
2022/02/07 01:23:42;;;;;;;7.85;4.12;;;;;;;4.13;74.00;98193.77;2278815;77;29850;-68
2022/02/07 01:47:01;;;;;;;8.70;4.20;;;;;;;4.39;73.83;98173.67;2287295;77;33778;-67
2022/02/07 01:49:54;;;;;;;7.37;4.25;;;;;;;4.40;73.85;98168.30;2303022;77;28790;-67
2022/02/07 01:55:49;;;;;;;7.05;3.62;;;;;;;4.35;73.25;98181.45;2272631;78;28778;-70
2022/02/07 01:58:50;;;;;;;5.53;3.45;;;;;;;4.30;73.26;98181.72;2243290;78;27662;-68
2022/02/07 02:01:52;;;;;;;6.72;3.08;;;;;;;4.28;73.27;98186.25;2277483;78;34220;-70
2022/02/07 02:04:55;;;;;;;8.65;2.77;;;;;;;4.23;73.07;98179.87;2281163;78;28767;-66
2022/02/07 02:07:57;;;;;;;22.50;9.03;;;;;;;4.23;73.05;98177.22;2281423;78;27799;-67
2022/02/07 02:11:01;;;;;;;15.93;6.95;;;;;;;4.22;73.04;98174.67;2281200;78;28705;-65
2022/02/07 02:14:23;;;;;;;7.62;4.35;;;;;;;4.21;73.01;98173.84;2297451;76;31023;-67
2022/02/07 02:37:19;;;;;;;4.97;2.42;;;;;;;4.32;73.05;98177.64;2276654;78;28739;-66
2022/02/07 02:46:45;;;;;;;3.85;2.10;;;;;;;4.48;73.16;98190.38;2281819;78;31077;-66
2022/02/07 02:49:59;;;;;;;5.20;2.33;;;;;;;4.54;73.30;98206.40;2280735;78;32954;-67
2022/02/07 02:52:50;;;;;;;4.05;2.12;;;;;;;4.57;73.41;98202.25;2278558;78;28964;-67
2022/02/07 02:56:07;;;;;;;4.75;1.90;;;;;;;4.56;73.24;98208.00;2282019;78;27738;-67
2022/02/07 02:59:09;;;;;;;3.02;1.72;;;;;;;4.59;73.25;98231.31;2272910;77;29487;-67
2022/02/07 03:02:11;;;;;;;1.82;0.90;;;;;;;4.59;73.36;98233.97;2281861;78;31094;-67
2022/02/07 03:05:15;;;;;;;1.20;0.62;;;;;;;4.57;73.36;98246.00;2282043;78;32954;-67
2022/02/07 03:08:19;;;;;;;1.82;0.78;;;;;;;4.53;73.42;98254.61;2275211;78;29085;-66
2022/02/07 03:11:24;;;;;;;3.60;1.02;;;;;;;4.49;73.47;98275.61;2278629;78;27733;-66
2022/02/07 03:14:36;;;;;;;1.57;0.68;;;;;;;4.44;73.30;98280.80;2245359;77;28679;-65
2022/02/07 03:17:28;;;;;;;0.42;0.40;;;;;;;4.35;73.17;98283.02;2275183;78;31377;-65
2022/02/07 03:20:30;;;;;;;1.25;0.80;;;;;;;4.30;73.25;98291.72;2283811;77;33019;-65
2022/02/07 03:23:32;;;;;;;7.83;2.50;;;;;;;4.25;73.38;98293.77;2279089;78;28710;-66
2022/02/07 03:26:42;;;;;;;5.80;3.02;;;;;;;4.21;73.46;98307.67;2274988;78;27685;-65
2022/02/07 03:29:44;;;;;;;5.85;2.40;;;;;;;4.19;73.66;98314.84;2276741;78;28665;-66
2022/02/07 03:32:46;;;;;;;3.02;1.22;;;;;;;4.15;73.52;98332.30;2252238;78;31000;-64
2022/02/07 03:35:48;;;;;;;2.58;1.20;;;;;;;4.09;73.47;98328.20;2247455;78;33138;-66
2022/02/07 03:38:49;;;;;;;5.47;1.10;;;;;;;4.04;73.41;98343.03;2278239;78;29622;-69
2022/02/07 03:41:51;;;;;;;4.80;2.92;;;;;;;4.01;73.29;98347.17;2277407;78;27593;-66
2022/02/07 03:44:53;;;;;;;9.45;1.70;;;;;;;3.96;73.14;98351.89;2278095;76;29434;-66
2022/02/07 03:47:56;;;;;;;4.53;1.45;;;;;;;3.91;73.02;98360.05;2277749;78;32235;-66
2022/02/07 03:50:58;;;;;;;3.22;1.67;;;;;;;3.88;73.02;98369.52;2278249;78;33836;-68
2022/02/07 03:54:00;;;;;;;7.20;2.33;;;;;;;3.86;73.01;98379.79;2278805;78;29668;-67
2022/02/07 03:57:02;;;;;;;3.65;2.00;;;;;;;3.85;73.05;98371.45;2278403;78;27618;-67
2022/02/07 04:00:10;;;;;;;5.10;1.37;;;;;;;3.81;73.06;98385.34;2279702;78;29911;-65
2022/02/07 04:03:13;;;;;;;4.40;1.10;;;;;;;3.80;72.97;98399.52;2279889;78;31886;-68
2022/02/07 04:06:17;;;;;;;2.33;0.88;;;;;;;3.76;72.92;98405.45;2280558;78;32965;-65
2022/02/07 04:09:22;;;;;;;2.70;0.88;;;;;;;3.74;73.00;98410.42;2280836;77;29023;-66
2022/02/07 04:12:25;;;;;;;5.00;1.05;;;;;;;3.72;73.00;98414.97;2281408;78;27798;-68
2022/02/07 04:15:25;;;;;;;1.65;0.85;;;;;;;3.71;73.10;98418.55;2279554;78;28730;-68
2022/02/07 04:18:31;;;;;;;2.95;0.65;;;;;;;3.70;73.14;98428.75;2271696;78;30430;-69
2022/02/07 04:21:31;;;;;;;7.45;1.05;;;;;;;3.71;73.12;98434.44;2251430;78;33053;-69
2022/02/07 04:24:36;;;;;;;2.83;0.62;;;;;;;3.71;73.06;98443.70;2213793;78;27696;-69
2022/02/07 04:27:37;;;;;;;5.78;1.10;;;;;;;3.72;73.07;98438.80;2280395;78;27686;-70
2022/02/07 04:30:39;;;;;;;2.25;0.60;;;;;;;3.75;73.15;98445.23;2278479;78;28791;-71
2022/02/07 04:33:43;;;;;;;2.70;0.70;;;;;;;3.75;73.00;98456.70;2278343;78;31795;-68
2022/02/07 04:36:49;;;;;;;2.37;0.95;;;;;;;3.75;73.01;98471.27;2281527;78;33117;-68
2022/02/07 04:39:51;;;;;;;1.97;1.10;;;;;;;3.75;72.87;98474.37;2282346;78;29057;-67
2022/02/07 04:42:53;;;;;;;4.12;1.00;;;;;;;3.75;72.79;98477.02;2282563;78;27673;-68
2022/02/07 04:46:06;;;;;;;3.55;0.90;;;;;;;3.74;72.64;98479.27;2282084;78;28645;-67
2022/02/07 04:49:28;;;;;;;3.00;1.00;;;;;;;3.72;72.56;98496.58;2278707;78;31004;-66
2022/02/07 04:58:57;;;;;;;2.20;0.65;;;;;;;3.74;72.42;98520.32;2274995;78;27724;-68
2022/02/07 05:01:52;;;;;;;1.52;0.75;;;;;;;3.73;72.25;98531.84;2255465;78;28885;-69
2022/02/07 05:05:05;;;;;;;2.83;0.95;;;;;;;3.69;71.82;98525.86;2258143;78;31052;-67
2022/02/07 05:14:20;;;;;;;1.37;0.60;;;;;;;3.63;71.49;98544.72;2217823;79;27672;-67
2022/02/07 05:17:22;;;;;;;3.37;1.40;;;;;;;3.60;71.25;98554.14;2229520;78;28659;-67
2022/02/07 05:20:24;;;;;;;5.58;1.95;;;;;;;3.58;71.13;98567.91;2248553;78;31318;-68
2022/02/07 05:23:26;;;;;;;3.17;1.30;;;;;;;3.53;71.32;98581.38;2280142;78;32946;-67
2022/02/07 05:26:28;;;;;;;1.37;0.93;;;;;;;3.49;71.51;98593.89;2257472;78;29011;-67
2022/02/07 05:29:30;;;;;;;1.55;1.07;;;;;;;3.45;71.67;98585.72;2258167;78;27640;-67
2022/02/07 05:32:31;;;;;;;1.75;0.50;;;;;;;3.39;71.47;98597.92;2270267;78;29441;-67
2022/02/07 05:35:33;;;;;;;2.35;0.80;;;;;;;3.37;71.13;98599.78;2279712;78;30986;-68
2022/02/07 05:38:39;;;;;;;3.55;0.80;;;;;;;3.36;71.17;98599.38;2280307;77;33785;-68
2022/02/07 05:41:41;;;;;;;2.95;1.67;;;;;;;3.33;70.92;98614.95;2276610;77;29038;-67
2022/02/07 05:44:47;;;;;;;2.45;1.00;;;;;;;3.30;70.86;98632.77;2258728;78;27688;-68
2022/02/07 05:47:46;;;;;;;1.27;0.80;;;;;;;3.27;70.84;98648.80;2258070;78;29535;-69
2022/02/07 05:50:48;;;;;;;3.37;0.75;;;;;;;3.22;70.95;98662.24;2258498;78;32019;-67
2022/02/07 05:53:50;;;;;;;2.37;0.90;;;;;;;3.18;71.12;98690.61;2277446;78;33101;-68
2022/02/07 05:56:52;;;;;;;3.77;1.30;;;;;;;3.15;71.39;98688.09;2280051;78;29968;-69
2022/02/07 05:59:53;;;;;;;2.15;1.05;;;;;;;3.12;71.37;98706.78;2270736;77;27758;-69
2022/02/07 06:02:55;;;;;;;1.77;0.75;;;;;;;3.12;71.49;98705.46;2233544;79;28696;-68
2022/02/07 06:05:57;;;;;;;2.50;1.32;;;;;;;3.08;71.34;98725.48;2232670;79;31166;-69
2022/02/07 06:08:59;;;;;;;2.17;0.60;;;;;;;3.06;71.33;98730.02;2267660;78;32974;-68
2022/02/07 06:12:01;;;;;;;4.25;0.93;;;;;;;3.04;71.40;98738.88;2271311;78;29244;-68
2022/02/07 06:15:04;;;;;;;2.05;1.15;;;;;;;3.03;71.44;98749.51;2271394;78;27682;-67
2022/02/07 06:18:06;;;;;;;1.95;0.72;;;;;;;3.01;71.41;98761.48;2271178;78;29746;-68
2022/02/07 06:21:10;;;;;;;5.15;0.85;;;;;;;3.00;71.42;98766.38;2272188;78;31173;-70
2022/02/07 06:24:11;;;;;;;5.10;1.47;;;;;;;2.99;71.50;98784.50;2274375;78;33137;-69
2022/02/07 06:27:14;;;;;;;1.42;1.10;;;;;;;2.99;71.51;98800.38;2274247;78;29108;-70
2022/02/07 06:30:15;;;;;;;2.92;1.10;;;;;;;3.00;71.60;98808.71;2273918;78;27606;-68
2022/02/07 06:33:17;;;;;;;2.40;1.02;;;;;;;3.00;71.58;98812.67;2271345;78;29432;-67
2022/02/07 06:36:20;;;;;;;5.55;1.70;;;;;;;3.01;71.57;98825.42;2271123;78;31022;-67
2022/02/07 06:39:22;;;;;;;3.17;1.15;;;;;;;3.01;71.68;98834.69;2271081;78;33125;-67
2022/02/07 06:42:23;;;;;;;1.98;0.93;;;;;;;3.00;71.57;98843.09;2278191;77;28841;-70
2022/02/07 06:45:25;;;;;;;2.08;1.10;;;;;;;3.00;71.64;98858.09;2289852;77;27658;-69
2022/02/07 06:48:27;;;;;;;3.42;1.07;;;;;;;2.99;71.62;98852.41;2299038;77;28679;-69
2022/02/07 06:51:29;;;;;;;2.58;0.90;;;;;;;3.00;71.62;98875.30;2219141;79;30465;-69
2022/02/07 06:54:31;;;;;;;2.27;1.00;;;;;;;2.99;71.82;98877.09;2238873;79;32958;-68
2022/02/07 06:57:36;;;;;;;1.82;0.93;;;;;;;3.01;71.90;98890.24;2238969;79;29826;-68
2022/02/07 07:00:38;;;;;;;3.22;1.15;;;;;;;3.02;71.89;98895.48;2260464;77;27207;-67
2022/02/07 07:03:44;;;;;;;2.02;0.85;;;;;;;3.03;71.93;98903.83;2265412;78;29631;-66
2022/02/07 07:06:45;;;;;;;3.22;2.02;;;;;;;3.05;71.86;98906.39;2266302;78;31013;-67
2022/02/07 07:09:47;;;;;;;4.97;2.70;;;;;;;3.08;71.92;98915.53;2266778;78;32379;-68
2022/02/07 07:12:57;;;;;;;2.45;1.60;;;;;;;3.10;71.89;98930.89;2282069;78;29068;-67
2022/02/07 07:16:01;;;;;;;2.65;1.55;;;;;;;3.16;71.89;98943.84;2281387;78;27607;-67
2022/02/07 07:18:57;;;;;;;2.15;1.42;;;;;;;3.21;71.80;98946.77;2281194;78;29674;-68
2022/02/07 07:22:03;;;;;;;1.85;1.00;;;;;;;3.27;71.82;98955.31;2282466;78;31976;-67
2022/02/07 07:25:13;;;;;;;1.67;1.30;;;;;;;3.34;71.80;98965.18;2267087;77;34217;-66
2022/02/07 07:28:13;;;;;;;1.07;0.93;;;;;;;3.40;71.74;98983.91;2263750;78;29201;-69
2022/02/07 07:31:15;;;;;;;2.90;2.05;;;;;;;3.44;71.72;98984.19;2264771;78;27699;-66
2022/02/07 07:34:18;;;;;;;3.95;2.60;;;;;;;3.45;71.73;98995.19;2264466;78;29637;-67
2022/02/07 07:37:20;;;;;;;3.37;1.52;;;;;;;3.46;71.66;98999.11;2290106;77;31002;-67
2022/02/07 07:40:22;;;;;;;2.50;1.55;;;;;;;3.48;71.75;99016.24;2289481;77;33757;-68
2022/02/07 07:43:24;;;;;;;3.95;1.70;;;;;;;3.57;71.76;99016.33;2290031;77;29072;-67
2022/02/07 07:46:29;;;;;;;3.55;1.95;;;;;;;3.62;71.84;99028.92;2277780;77;27627;-66
2022/02/07 07:49:33;;;;;;;2.33;1.30;;;;;;;3.66;71.86;99042.41;2264016;77;28684;-67
2022/02/07 07:52:59;;;;;;;1.20;0.85;;;;;;;3.67;71.77;99048.11;2264246;78;31902;-67
2022/02/07 08:02:28;;;;;;;5.10;1.17;;;;;;;3.75;72.02;99070.30;2332263;76;27525;-67
2022/02/07 08:05:45;;;;;;;4.65;2.30;;;;;;;3.79;71.90;99079.85;2290078;77;29640;-68
2022/02/07 08:08:43;;;;;;;2.58;1.77;;;;;;;3.81;71.91;99093.89;2296053;77;31025;-69
2022/02/07 08:11:41;;;;;;;4.70;1.80;;;;;;;3.77;71.70;99091.84;2280283;78;32999;-70
2022/02/07 08:14:43;;;;;;;3.83;2.33;;;;;;;3.76;71.79;99096.74;2282483;78;29254;-69
2022/02/07 08:17:44;;;;;;;4.28;1.95;;;;;;;3.80;72.01;99115.56;2282538;78;27721;-69
2022/02/07 08:20:46;;;;;;;5.87;1.92;;;;;;;3.84;71.88;99115.41;2282137;78;28674;-67
2022/02/07 08:23:48;;;;;;;3.72;1.72;;;;;;;3.87;71.83;99127.22;2282554;78;30612;-68
2022/02/07 08:26:52;;;;;;;4.95;2.27;;;;;;;3.86;71.84;99136.09;2282273;78;32832;-69
2022/02/07 08:29:55;;;;;;;4.03;1.70;;;;;;;4.00;72.31;99144.33;2282787;78;30818;-66
2022/02/07 08:32:58;;;;;;;5.65;2.33;;;;;;;4.22;72.35;99152.72;2282328;78;27681;-70
2022/02/07 08:36:00;;;;;;;10.00;6.45;;;;;;;4.39;72.07;99158.17;2282943;78;28648;-69
2022/02/07 08:39:02;;;;;;;10.48;6.97;;;;;;;4.56;71.92;99169.84;2282725;78;30998;-70
2022/02/07 08:42:05;;;;;;;9.85;4.58;;;;;;;4.69;71.75;99174.16;2247636;77;33588;-69
2022/02/07 08:45:08;;;;;;;8.50;5.20;;;;;;;4.89;71.70;99167.96;2234696;78;29811;-67
2022/02/07 08:48:10;;;;;;;6.22;3.55;;;;;;;5.13;71.73;99186.38;2254124;78;27693;-68
2022/02/07 08:51:12;;;;;;;5.87;3.20;;;;;;;5.39;71.19;99198.92;2265480;78;28706;-70
2022/02/07 08:54:20;;;;;;;10.35;5.08;;;;;;;5.38;70.41;99196.72;2288028;77;31869;-68
2022/02/07 08:57:29;;;;;;;13.03;7.08;;;;;;;5.32;70.37;99212.47;2294523;77;34138;-67
2022/02/07 09:00:39;;;;;;;6.35;4.10;;;;;;;5.28;70.56;99220.20;2304979;77;29381;-69
2022/02/07 09:06:39;;;;;;;5.78;4.40;;;;;;;5.25;70.42;99230.95;2206113;80;28699;-67
2022/02/07 09:09:40;;;;;;;5.12;3.70;;;;;;;5.28;70.75;99228.17;2206290;80;31023;-67
2022/02/07 09:12:43;;;;;;;4.50;3.33;;;;;;;5.40;70.66;99237.34;2212274;80;32874;-67
2022/02/07 09:16:02;;;;;;;15.72;8.10;;;;;;;5.48;70.72;99237.88;2207907;80;29024;-69
2022/02/07 09:18:46;;;;;;;11.90;5.55;;;;;;;5.48;70.27;99242.31;2144638;82;27714;-69
2022/02/07 09:21:49;;;;;;;13.93;6.08;;;;;;;5.52;70.50;99255.85;2206209;80;28665;-70
2022/02/07 09:24:51;;;;;;;9.68;4.58;;;;;;;5.28;69.85;99247.20;2212737;80;32036;-68
2022/02/07 09:27:55;;;;;;;10.23;4.65;;;;;;;5.22;69.92;99275.34;2204202;80;32973;-72
2022/02/07 09:30:59;;;;;;;17.75;9.10;;;;;;;5.05;69.91;99289.38;2147904;82;29027;-68
2022/02/07 09:34:01;;;;;;;16.93;7.97;;;;;;;4.97;70.46;99290.55;2173413;81;27802;-69
2022/02/07 09:37:08;;;;;;;7.90;3.90;;;;;;;4.99;70.83;99301.13;2201374;80;28674;-68
2022/02/07 09:40:11;;;;;;;6.15;3.42;;;;;;;5.11;71.14;99305.05;2203172;80;31313;-69
2022/02/07 09:43:14;;;;;;;4.72;3.10;;;;;;;5.20;71.19;99306.44;2189622;80;32972;-70
2022/02/07 09:46:35;;;;;;;8.20;3.95;;;;;;;5.41;71.55;99324.06;2303743;77;29414;-69
2022/02/07 09:49:25;;;;;;;6.12;2.90;;;;;;;5.66;71.54;99332.73;2286501;77;27650;-71
2022/02/07 09:52:27;;;;;;;5.58;2.80;;;;;;;5.92;71.29;99327.11;2306662;77;28824;-69
2022/02/07 09:55:32;;;;;;;4.78;3.08;;;;;;;6.11;70.59;99335.59;2306034;77;27814;-72
2022/02/07 09:58:38;;;;;;;23.25;8.93;;;;;;;6.19;70.16;99344.54;2276716;77;33015;-68
2022/02/07 10:01:41;;;;;;;7.75;3.50;;;;;;;6.19;69.79;99350.70;2286042;77;29046;-69
2022/02/07 10:04:45;;;;;;;27.05;10.75;;;;;;;6.23;69.87;99361.61;2290374;77;27805;-69
2022/02/07 10:08:04;;;;;;;14.58;7.00;;;;;;;6.36;69.74;99364.55;2278677;77;29609;-69
2022/02/07 10:11:18;;;;;;;19.23;12.90;;;;;;;6.42;69.52;99370.05;2305556;77;31717;-68
2022/02/07 10:14:21;;;;;;;71.70;28.42;;;;;;;6.49;69.31;99370.62;2303722;77;33134;-69
2022/02/07 10:40:53;;;;;;;44.33;17.57;;;;;;;6.23;68.96;99400.17;2282379;78;29918;-68
2022/02/07 10:43:57;;;;;;;41.88;14.38;;;;;;;6.16;68.48;99405.84;2279588;78;31096;-68
2022/02/07 10:46:55;;;;;;;20.17;7.62;;;;;;;5.99;68.16;99411.43;2279483;77;32965;-67
2022/02/07 10:50:13;;;;;;;17.30;6.30;;;;;;;5.85;68.53;99408.53;2282443;78;29898;-70
2022/02/07 10:53:19;;;;;;;40.33;17.57;;;;;;;5.75;68.60;99407.59;2297224;77;27795;-68
2022/02/07 10:56:30;;;;;;;27.02;13.28;;;;;;;5.69;68.90;99410.98;2261965;77;28929;-67
2022/02/07 10:59:30;;;;;;;51.08;20.82;;;;;;;5.70;69.07;99416.70;2261289;78;31079;-69
2022/02/07 11:02:51;;;;;;;21.23;8.60;;;;;;;5.68;68.88;99403.95;2228397;79;32987;-68
2022/02/07 11:06:00;;;;;;;21.77;10.50;;;;;;;5.63;68.74;99408.98;2206509;80;29866;-67
2022/02/07 11:08:50;;;;;;;21.27;7.97;;;;;;;5.70;69.27;99421.57;2220431;80;27582;-67
2022/02/07 11:12:07;;;;;;;17.00;7.17;;;;;;;5.76;68.68;99443.88;2231040;79;28798;-67
2022/02/07 11:18:07;;;;;;;8.75;2.72;;;;;;;5.76;68.42;99436.37;2231275;79;33775;-65
2022/02/07 11:24:49;;;;;;;6.03;2.80;;;;;;;5.77;68.51;99453.58;2129227;81;27704;-67
2022/02/07 11:27:48;;;;;;;12.10;2.55;;;;;;;5.78;68.52;99457.96;2150351;82;29968;-66
2022/02/07 11:30:49;;;;;;;5.90;2.45;;;;;;;5.83;68.38;99464.40;2152550;82;31194;-67
2022/02/07 11:34:02;;;;;;;9.85;3.12;;;;;;;5.93;68.57;99463.08;2153576;81;33781;-68
2022/02/07 11:37:21;;;;;;;4.97;2.77;;;;;;;5.95;68.03;99460.83;2153602;82;29669;-68
2022/02/07 11:40:34;;;;;;;15.55;4.15;;;;;;;6.00;68.34;99465.48;2153091;82;27828;-68
2022/02/07 11:43:39;;;;;;;7.20;3.20;;;;;;;6.09;68.28;99475.73;2152176;82;28083;-68
2022/02/07 11:46:40;;;;;;;8.83;3.12;;;;;;;6.14;67.89;99472.86;2151655;82;31847;-68
2022/02/07 11:49:49;;;;;;;7.30;2.30;;;;;;;6.24;67.77;99479.48;2152820;81;33723;-68
2022/02/07 11:52:54;;;;;;;7.00;2.15;;;;;;;6.37;67.80;99471.33;2153582;81;29198;-69
2022/02/07 11:56:18;;;;;;;4.15;1.60;;;;;;;6.50;66.99;99478.77;2153143;82;27883;-68
2022/02/07 12:02:28;;;;;;;5.55;1.32;;;;;;;6.65;66.72;99502.02;2243967;78;31085;-69
2022/02/07 12:05:31;;;;;;;6.83;1.98;;;;;;;6.69;66.30;99502.72;2224692;78;33028;-68
2022/02/07 12:08:37;;;;;;;7.22;2.27;;;;;;;6.68;66.48;99516.97;2214254;80;29226;-68
2022/02/07 12:11:45;;;;;;;7.67;2.25;;;;;;;6.71;65.80;99521.27;2238959;77;27656;-70
2022/02/07 12:14:49;;;;;;;7.40;2.17;;;;;;;6.67;66.20;99514.78;2296083;77;28658;-68
2022/02/07 12:17:57;;;;;;;8.00;2.20;;;;;;;6.64;65.56;99533.55;2294015;77;31019;-69
2022/02/07 12:21:18;;;;;;;7.12;2.37;;;;;;;6.64;65.38;99540.20;2315027;76;32965;-67
2022/02/07 12:24:20;;;;;;;9.55;2.55;;;;;;;6.60;65.56;99543.94;2293949;77;29042;-68
2022/02/07 12:27:22;;;;;;;14.90;7.05;;;;;;;6.58;65.34;99552.45;2283449;76;27746;-70
2022/02/07 12:30:31;;;;;;;15.20;7.53;;;;;;;6.57;65.04;99558.70;2249981;79;29822;-69
2022/02/07 12:33:33;;;;;;;11.93;5.33;;;;;;;6.57;65.27;99557.86;2272197;76;31037;-70
2022/02/07 12:36:37;;;;;;;15.98;12.37;;;;;;;6.62;65.07;99562.52;2234003;79;32990;-68
2022/02/07 12:39:40;;;;;;;11.17;5.67;;;;;;;6.69;65.06;99557.28;2232967;78;29005;-69
2022/02/07 12:42:43;;;;;;;10.68;4.28;;;;;;;6.76;65.32;99570.73;2210884;80;27664;-68
2022/02/07 12:45:45;;;;;;;6.33;3.22;;;;;;;6.79;65.01;99569.71;2258727;76;29703;-66
2022/02/07 12:49:00;;;;;;;4.95;2.20;;;;;;;6.79;65.15;99575.88;2219648;78;30999;-70
2022/02/07 12:52:05;;;;;;;5.37;2.17;;;;;;;6.82;65.12;99581.55;2214241;80;33155;-69
2022/02/07 12:55:12;;;;;;;5.92;2.10;;;;;;;6.82;64.93;99576.23;2210413;80;29819;-69
2022/02/07 12:58:14;;;;;;;7.05;2.20;;;;;;;6.84;65.01;99573.03;2307944;76;27752;-67
2022/02/07 13:01:31;;;;;;;8.63;3.02;;;;;;;6.86;65.10;99587.15;2293260;77;30060;-70
2022/02/07 13:04:33;;;;;;;5.78;2.95;;;;;;;6.82;64.96;99598.86;2306694;77;31887;-67
2022/02/07 13:07:38;;;;;;;11.28;3.58;;;;;;;6.74;64.71;99610.31;2290619;77;32887;-68
2022/02/07 13:10:41;;;;;;;11.18;3.77;;;;;;;6.57;64.67;99633.22;2305919;77;29027;-67
2022/02/07 13:13:48;;;;;;;8.38;3.87;;;;;;;6.41;64.95;99653.44;2290848;77;27692;-68
2022/02/07 13:16:50;;;;;;;7.45;3.00;;;;;;;6.18;65.61;99669.45;2289379;77;28664;-67
2022/02/07 13:19:54;;;;;;;6.78;2.87;;;;;;;5.91;66.00;99698.00;2265010;78;31062;-67
2022/02/07 13:23:06;;;;;;;7.67;2.52;;;;;;;5.62;65.96;99669.02;2264469;78;33468;-67
2022/02/07 13:26:10;;;;;;;4.92;3.25;;;;;;;5.43;66.58;99671.51;2279917;77;29051;-68
2022/02/07 13:29:22;;;;;;;7.45;4.17;;;;;;;5.36;67.19;99671.36;2252505;78;27737;-69
2022/02/07 13:32:30;;;;;;;7.50;2.65;;;;;;;5.35;67.55;99670.95;2282270;78;28649;-69
2022/02/07 13:35:43;;;;;;;5.50;2.70;;;;;;;5.28;67.83;99680.95;2282266;78;31127;-69
2022/02/07 13:38:46;;;;;;;6.45;2.98;;;;;;;5.27;68.24;99692.94;2282084;78;32896;-66
2022/02/07 13:42:07;;;;;;;9.83;3.90;;;;;;;5.27;68.51;99707.55;2282115;78;29029;-68
2022/02/07 13:45:19;;;;;;;7.00;3.50;;;;;;;5.25;68.55;99721.33;2282269;78;27654;-67
2022/02/07 13:48:21;;;;;;;10.70;4.03;;;;;;;5.22;68.64;99722.77;2287707;77;28674;-64
2022/02/07 13:51:28;;;;;;;13.05;4.65;;;;;;;5.17;68.76;99723.83;2307066;77;31847;-68
2022/02/07 13:54:32;;;;;;;9.13;4.00;;;;;;;5.22;69.04;99724.09;2305625;77;34197;-67
2022/02/07 13:57:34;;;;;;;13.88;4.30;;;;;;;5.21;68.84;99743.16;2290392;77;29091;-67
2022/02/07 14:00:50;;;;;;;13.88;4.90;;;;;;;5.22;68.94;99741.36;2282419;78;28156;-66
2022/02/07 14:03:57;;;;;;;18.23;3.92;;;;;;;5.22;68.92;99745.34;2260785;78;29502;-65
2022/02/07 14:07:13;;;;;;;15.13;4.45;;;;;;;5.21;68.80;99757.77;2257982;78;31359;-67
2022/02/07 14:10:22;;;;;;;15.00;3.80;;;;;;;5.20;68.87;99756.51;2275002;78;33327;-66
2022/02/07 14:13:25;;;;;;;9.80;3.05;;;;;;;5.17;68.85;99762.33;2280529;78;29168;-66
2022/02/07 14:16:27;;;;;;;10.45;3.45;;;;;;;5.19;69.01;99765.39;2280646;78;28239;-67
2022/02/07 14:19:51;;;;;;;11.78;4.30;;;;;;;5.19;68.77;99774.21;2276853;78;28660;-68
2022/02/07 14:22:48;;;;;;;14.95;6.60;;;;;;;5.16;68.77;99788.48;2274689;78;31076;-66
2022/02/07 14:25:58;;;;;;;9.58;4.95;;;;;;;5.13;68.75;99789.05;2230795;78;34182;-67
2022/02/07 14:28:55;;;;;;;15.95;4.42;;;;;;;5.10;68.90;99791.34;2222432;78;29863;-67
2022/02/07 14:31:58;;;;;;;14.00;4.78;;;;;;;5.10;68.87;99802.44;2258390;78;27687;-67
2022/02/07 14:35:00;;;;;;;17.62;6.45;;;;;;;5.08;69.02;99815.75;2258551;78;28657;-68
2022/02/07 14:38:04;;;;;;;14.47;6.97;;;;;;;5.08;69.16;99819.72;2224159;78;31857;-68
2022/02/07 14:41:08;;;;;;;18.97;5.47;;;;;;;5.06;69.04;99828.20;2234985;78;32957;-68
2022/02/07 14:44:19;;;;;;;15.03;5.83;;;;;;;5.03;69.13;99820.37;2213467;78;28376;-74
2022/02/07 14:47:36;;;;;;;16.07;5.30;;;;;;;5.00;68.94;99827.11;2240008;79;27660;-68
2022/02/07 14:50:25;;;;;;;14.35;5.30;;;;;;;4.99;68.97;99825.37;2231713;79;28671;-68
2022/02/07 14:53:27;;;;;;;14.58;3.92;;;;;;;4.97;68.96;99833.36;2239392;78;31021;-68
2022/02/07 14:56:29;;;;;;;13.88;4.75;;;;;;;4.99;69.10;99835.98;2218489;79;33838;-65
2022/02/07 14:59:31;;;;;;;14.20;4.40;;;;;;;4.98;69.00;99840.89;2269782;78;30214;-67
2022/02/07 15:02:34;;;;;;;15.38;5.08;;;;;;;4.96;68.78;99843.61;2282885;77;27691;-66
2022/02/07 15:05:36;;;;;;;16.35;3.77;;;;;;;4.97;68.94;99853.75;2324839;76;29879;-69
2022/02/07 15:08:38;;;;;;;11.38;4.12;;;;;;;4.96;68.80;99854.66;2288851;77;32111;-66
2022/02/07 15:11:40;;;;;;;14.35;3.55;;;;;;;4.94;68.56;99860.48;2302613;77;33642;-68
2022/02/07 15:14:49;;;;;;;16.60;5.37;;;;;;;4.92;68.52;99860.55;2241180;79;29201;-66
2022/02/07 15:17:46;;;;;;;12.70;4.20;;;;;;;4.92;68.49;99868.52;2238753;79;27740;-68
2022/02/07 15:20:48;;;;;;;13.78;4.70;;;;;;;4.92;68.36;99867.62;2253396;78;29583;-66
2022/02/07 15:23:52;;;;;;;17.10;5.20;;;;;;;4.89;68.45;99869.94;2282104;78;30704;-68
2022/02/07 15:26:54;;;;;;;20.08;5.17;;;;;;;4.90;68.41;99876.09;2282123;78;33276;-66
2022/02/07 15:29:57;;;;;;;16.80;5.78;;;;;;;4.91;68.28;99881.38;2281786;78;29888;-68
2022/02/07 15:33:00;;;;;;;14.68;4.28;;;;;;;4.90;68.28;99899.54;2281812;78;27708;-68
2022/02/07 15:36:02;;;;;;;14.38;4.95;;;;;;;4.89;67.95;99891.17;2282096;78;28667;-67
2022/02/07 15:39:08;;;;;;;13.22;5.50;;;;;;;4.86;67.97;99900.55;2252467;78;31001;-68
2022/02/07 15:42:08;;;;;;;13.90;5.25;;;;;;;4.84;67.83;99906.36;2240327;79;33004;-64
2022/02/07 15:45:11;;;;;;;21.70;5.72;;;;;;;4.81;67.65;99908.67;2257965;78;29145;-65
2022/02/07 15:48:14;;;;;;;14.00;4.40;;;;;;;4.76;67.65;99918.55;2230150;78;27683;-65
2022/02/07 15:51:16;;;;;;;13.20;5.20;;;;;;;4.71;67.66;99910.75;2230918;79;29480;-62
2022/02/07 15:54:19;;;;;;;16.93;4.85;;;;;;;4.67;67.76;99917.53;2229743;79;31606;-61
2022/02/07 15:57:21;;;;;;;11.68;3.92;;;;;;;4.62;67.89;99926.97;2230988;79;34102;-63
2022/02/07 16:00:24;;;;;;;8.83;3.70;;;;;;;4.59;67.94;99944.30;2230523;79;29748;-63
2022/02/07 16:03:26;;;;;;;14.03;3.92;;;;;;;4.55;67.93;99947.48;2230888;79;27700;-63
2022/02/07 16:06:28;;;;;;;15.00;3.92;;;;;;;4.50;67.88;99961.80;2230814;79;28770;-63
2022/02/07 16:09:30;;;;;;;16.80;4.42;;;;;;;4.49;67.97;99971.56;2246884;77;31215;-61
2022/02/07 16:12:32;;;;;;;14.20;4.60;;;;;;;4.45;68.09;99971.23;2260153;78;34152;-64
2022/02/07 16:15:38;;;;;;;13.75;5.00;;;;;;;4.40;68.12;99977.13;2271111;77;28509;-62
2022/02/07 16:18:40;;;;;;;14.00;3.42;;;;;;;4.34;68.18;99982.62;2254713;79;27717;-62
2022/02/07 16:21:42;;;;;;;18.23;4.92;;;;;;;4.28;68.24;99988.09;2254307;79;28941;-72
2022/02/07 16:24:45;;;;;;;25.50;6.72;;;;;;;4.21;68.25;100000.22;2253927;79;31512;-69
2022/02/07 16:27:47;;;;;;;21.68;7.58;;;;;;;4.19;68.44;100027.67;2255628;77;32349;-70